Belvedere Tiburon, California
Current Conditions -  °F | °C
As of 11:24 AM on Friday 31 Oct 2014 (Local Time) from KOAK Reporting Station
Light Rain Light Rain  
Wind Chill: 59°   Ceiling: 2200
Heat Index: 59°   Visibility: 1.5mi
Dew Point: 55°   Wind: 17mph
Humidity: 88%   Direction: 230°SW
Pressure: 29.86"   Gusts: NA
Location:  37.89°N, 122.47°W
Report Text: KOAK 311824Z 23015KT 1 1/2SM -RA BR SCT011 BKN022 OVC035 15/13 A2986 RMK AO2 RAB10 P0005
Loading
Personal Weather Stations






























Interactive Weather Map
Tropical Storm Tracking
New forecast layout! Learn more

10-Day Weather Forecast

Advertisements
Track Severe Weather on mobile